sensor_id;sensor_type;location;lat;lon;timestamp;P1;durP1;ratioP1;P2;durP2;ratioP2
5752;SDS011;2901;42.140;24.760;2023-01-13T00:01:54;4.33;;;4.03;;
5752;SDS011;2901;42.140;24.760;2023-01-13T00:04:19;3.63;;;3.43;;
5752;SDS011;2901;42.140;24.760;2023-01-13T00:06:44;3.33;;;3.13;;
5752;SDS011;2901;42.140;24.760;2023-01-13T00:09:10;3.33;;;3.03;;
5752;SDS011;2901;42.140;24.760;2023-01-13T00:11:35;3.50;;;3.30;;
5752;SDS011;2901;42.140;24.760;2023-01-13T00:14:01;4.27;;;3.93;;
5752;SDS011;2901;42.140;24.760;2023-01-13T00:16:26;2.70;;;2.60;;
5752;SDS011;2901;42.140;24.760;2023-01-13T00:18:51;6.03;;;2.90;;
5752;SDS011;2901;42.140;24.760;2023-01-13T00:21:18;2.57;;;2.47;;
5752;SDS011;2901;42.140;24.760;2023-01-13T00:23:45;2.60;;;2.40;;
5752;SDS011;2901;42.140;24.760;2023-01-13T00:26:15;3.10;;;2.97;;
5752;SDS011;2901;42.140;24.760;2023-01-13T00:28:42;2.20;;;2.10;;
5752;SDS011;2901;42.140;24.760;2023-01-13T00:31:08;2.73;;;2.63;;
5752;SDS011;2901;42.140;24.760;2023-01-13T00:33:36;2.93;;;2.83;;
5752;SDS011;2901;42.140;24.760;2023-01-13T00:36:02;2.87;;;2.77;;
5752;SDS011;2901;42.140;24.760;2023-01-13T00:38:30;2.57;;;2.47;;
5752;SDS011;2901;42.140;24.760;2023-01-13T00:41:00;2.57;;;2.47;;
5752;SDS011;2901;42.140;24.760;2023-01-13T00:43:28;2.87;;;2.77;;
5752;SDS011;2901;42.140;24.760;2023-01-13T00:45:54;2.37;;;2.27;;
5752;SDS011;2901;42.140;24.760;2023-01-13T00:48:20;2.10;;;2.00;;
5752;SDS011;2901;42.140;24.760;2023-01-13T00:50:53;3.20;;;3.00;;
5752;SDS011;2901;42.140;24.760;2023-01-13T00:53:23;2.50;;;2.40;;
5752;SDS011;2901;42.140;24.760;2023-01-13T00:55:57;2.57;;;2.40;;
5752;SDS011;2901;42.140;24.760;2023-01-13T00:58:25;3.00;;;2.80;;
5752;SDS011;2901;42.140;24.760;2023-01-13T01:00:51;3.20;;;2.63;;
5752;SDS011;2901;42.140;24.760;2023-01-13T01:03:16;3.10;;;2.90;;
5752;SDS011;2901;42.140;24.760;2023-01-13T01:05:41;2.80;;;2.60;;
5752;SDS011;2901;42.140;24.760;2023-01-13T01:08:07;2.77;;;2.57;;
5752;SDS011;2901;42.140;24.760;2023-01-13T01:10:32;2.90;;;2.73;;
5752;SDS011;2901;42.140;24.760;2023-01-13T01:12:58;2.60;;;2.50;;
5752;SDS011;2901;42.140;24.760;2023-01-13T01:15:23;2.90;;;2.80;;
5752;SDS011;2901;42.140;24.760;2023-01-13T01:17:49;2.87;;;2.67;;
5752;SDS011;2901;42.140;24.760;2023-01-13T01:20:14;2.63;;;2.43;;
5752;SDS011;2901;42.140;24.760;2023-01-13T01:22:40;2.93;;;2.73;;
5752;SDS011;2901;42.140;24.760;2023-01-13T01:25:05;2.80;;;2.60;;
5752;SDS011;2901;42.140;24.760;2023-01-13T01:27:31;2.37;;;2.27;;
5752;SDS011;2901;42.140;24.760;2023-01-13T01:29:57;2.27;;;2.17;;
5752;SDS011;2901;42.140;24.760;2023-01-13T01:32:22;2.53;;;2.37;;
5752;SDS011;2901;42.140;24.760;2023-01-13T01:34:47;3.20;;;2.60;;
5752;SDS011;2901;42.140;24.760;2023-01-13T01:37:15;2.80;;;2.60;;
5752;SDS011;2901;42.140;24.760;2023-01-13T01:39:40;2.70;;;2.50;;
5752;SDS011;2901;42.140;24.760;2023-01-13T01:42:05;2.80;;;2.60;;
5752;SDS011;2901;42.140;24.760;2023-01-13T01:44:54;2.58;;;2.47;;
5752;SDS011;2901;42.140;24.760;2023-01-13T01:47:23;3.33;;;2.63;;
5752;SDS011;2901;42.140;24.760;2023-01-13T01:49:50;2.97;;;2.60;;
5752;SDS011;2901;42.140;24.760;2023-01-13T01:52:22;3.10;;;2.50;;
5752;SDS011;2901;42.140;24.760;2023-01-13T01:54:54;3.17;;;2.47;;
5752;SDS011;2901;42.140;24.760;2023-01-13T01:57:32;3.30;;;2.47;;
5752;SDS011;2901;42.140;24.760;2023-01-13T02:00:06;2.70;;;2.47;;
5752;SDS011;2901;42.140;24.760;2023-01-13T02:02:32;3.13;;;2.93;;
5752;SDS011;2901;42.140;24.760;2023-01-13T02:04:57;2.73;;;2.47;;
5752;SDS011;2901;42.140;24.760;2023-01-13T02:07:24;3.20;;;3.00;;
5752;SDS011;2901;42.140;24.760;2023-01-13T02:09:54;2.53;;;2.43;;
5752;SDS011;2901;42.140;24.760;2023-01-13T02:12:21;2.47;;;2.37;;
5752;SDS011;2901;42.140;24.760;2023-01-13T02:15:09;2.38;;;2.28;;
5752;SDS011;2901;42.140;24.760;2023-01-13T02:20:34;2.53;;;2.43;;
5752;SDS011;2901;42.140;24.760;2023-01-13T02:23:11;2.13;;;2.03;;
5752;SDS011;2901;42.140;24.760;2023-01-13T02:31:56;3.00;;;2.80;;
5752;SDS011;2901;42.140;24.760;2023-01-13T02:37:10;3.77;;;1.70;;
5752;SDS011;2901;42.140;24.760;2023-01-13T02:39:43;2.30;;;2.20;;
5752;SDS011;2901;42.140;24.760;2023-01-13T02:42:22;2.40;;;2.30;;
5752;SDS011;2901;42.140;24.760;2023-01-13T02:45:27;2.30;;;2.20;;
5752;SDS011;2901;42.140;24.760;2023-01-13T02:47:56;2.43;;;2.33;;
5752;SDS011;2901;42.140;24.760;2023-01-13T02:50:28;2.23;;;2.13;;
5752;SDS011;2901;42.140;24.760;2023-01-13T02:53:01;2.67;;;2.57;;
5752;SDS011;2901;42.140;24.760;2023-01-13T02:55:43;2.30;;;2.20;;
5752;SDS011;2901;42.140;24.760;2023-01-13T02:58:12;2.07;;;1.97;;
5752;SDS011;2901;42.140;24.760;2023-01-13T03:00:42;2.70;;;2.50;;
5752;SDS011;2901;42.140;24.760;2023-01-13T03:03:09;2.03;;;1.93;;
5752;SDS011;2901;42.140;24.760;2023-01-13T03:05:34;2.87;;;2.63;;
5752;SDS011;2901;42.140;24.760;2023-01-13T03:21:56;2.57;;;2.40;;
5752;SDS011;2901;42.140;24.760;2023-01-13T03:30:14;2.80;;;2.70;;
5752;SDS011;2901;42.140;24.760;2023-01-13T03:32:48;2.30;;;2.20;;
5752;SDS011;2901;42.140;24.760;2023-01-13T03:35:25;2.63;;;2.43;;
5752;SDS011;2901;42.140;24.760;2023-01-13T03:40:50;3.00;;;2.80;;
5752;SDS011;2901;42.140;24.760;2023-01-13T03:43:23;2.57;;;2.47;;
5752;SDS011;2901;42.140;24.760;2023-01-13T03:46:14;3.20;;;3.00;;
5752;SDS011;2901;42.140;24.760;2023-01-13T03:48:52;3.53;;;3.27;;
5752;SDS011;2901;42.140;24.760;2023-01-13T03:51:22;3.00;;;2.80;;
5752;SDS011;2901;42.140;24.760;2023-01-13T03:53:54;2.80;;;2.60;;
5752;SDS011;2901;42.140;24.760;2023-01-13T03:59:22;3.53;;;3.23;;
5752;SDS011;2901;42.140;24.760;2023-01-13T04:02:06;3.20;;;3.00;;
5752;SDS011;2901;42.140;24.760;2023-01-13T04:04:47;2.87;;;2.67;;
5752;SDS011;2901;42.140;24.760;2023-01-13T04:07:20;2.70;;;2.60;;
5752;SDS011;2901;42.140;24.760;2023-01-13T04:09:52;3.20;;;2.90;;
5752;SDS011;2901;42.140;24.760;2023-01-13T04:12:30;3.07;;;2.87;;
5752;SDS011;2901;42.140;24.760;2023-01-13T04:15:21;3.03;;;2.93;;
5752;SDS011;2901;42.140;24.760;2023-01-13T04:17:49;3.00;;;2.90;;
5752;SDS011;2901;42.140;24.760;2023-01-13T04:20:15;3.30;;;3.10;;
5752;SDS011;2901;42.140;24.760;2023-01-13T04:22:41;2.87;;;2.73;;
5752;SDS011;2901;42.140;24.760;2023-01-13T04:25:07;2.60;;;2.50;;
5752;SDS011;2901;42.140;24.760;2023-01-13T04:27:33;3.17;;;2.97;;
5752;SDS011;2901;42.140;24.760;2023-01-13T04:29:58;3.20;;;3.00;;
5752;SDS011;2901;42.140;24.760;2023-01-13T04:32:24;3.03;;;2.90;;
5752;SDS011;2901;42.140;24.760;2023-01-13T04:34:49;3.17;;;2.97;;
5752;SDS011;2901;42.140;24.760;2023-01-13T04:37:14;3.17;;;3.00;;
5752;SDS011;2901;42.140;24.760;2023-01-13T04:39:40;3.57;;;2.73;;
5752;SDS011;2901;42.140;24.760;2023-01-13T04:42:05;3.17;;;3.07;;
5752;SDS011;2901;42.140;24.760;2023-01-13T04:44:30;2.87;;;2.70;;
5752;SDS011;2901;42.140;24.760;2023-01-13T04:46:59;2.80;;;2.70;;
5752;SDS011;2901;42.140;24.760;2023-01-13T04:49:25;2.80;;;2.70;;
5752;SDS011;2901;42.140;24.760;2023-01-13T04:51:50;3.33;;;3.23;;
5752;SDS011;2901;42.140;24.760;2023-01-13T04:54:16;2.27;;;2.17;;
5752;SDS011;2901;42.140;24.760;2023-01-13T04:56:41;3.37;;;3.10;;
5752;SDS011;2901;42.140;24.760;2023-01-13T04:59:08;2.97;;;2.87;;
5752;SDS011;2901;42.140;24.760;2023-01-13T05:01:36;3.63;;;3.07;;
5752;SDS011;2901;42.140;24.760;2023-01-13T05:04:02;3.13;;;2.93;;
5752;SDS011;2901;42.140;24.760;2023-01-13T05:06:28;2.33;;;2.23;;
5752;SDS011;2901;42.140;24.760;2023-01-13T05:08:53;2.70;;;2.50;;
5752;SDS011;2901;42.140;24.760;2023-01-13T05:11:19;4.20;;;2.70;;
5752;SDS011;2901;42.140;24.760;2023-01-13T05:14:03;2.80;;;2.67;;
5752;SDS011;2901;42.140;24.760;2023-01-13T05:16:47;2.50;;;2.30;;
5752;SDS011;2901;42.140;24.760;2023-01-13T05:19:25;2.80;;;2.60;;
5752;SDS011;2901;42.140;24.760;2023-01-13T05:21:51;2.47;;;2.33;;
5752;SDS011;2901;42.140;24.760;2023-01-13T05:24:35;2.73;;;2.53;;
5752;SDS011;2901;42.140;24.760;2023-01-13T05:27:19;5.50;;;3.20;;
5752;SDS011;2901;42.140;24.760;2023-01-13T05:29:44;2.13;;;2.03;;
5752;SDS011;2901;42.140;24.760;2023-01-13T05:32:09;2.60;;;2.40;;
5752;SDS011;2901;42.140;24.760;2023-01-13T05:34:35;2.20;;;2.10;;
5752;SDS011;2901;42.140;24.760;2023-01-13T05:37:00;4.03;;;2.67;;
5752;SDS011;2901;42.140;24.760;2023-01-13T05:39:26;2.70;;;2.33;;
5752;SDS011;2901;42.140;24.760;2023-01-13T05:41:51;4.82;;;2.58;;
5752;SDS011;2901;42.140;24.760;2023-01-13T05:44:36;2.43;;;2.33;;
5752;SDS011;2901;42.140;24.760;2023-01-13T05:47:01;2.73;;;2.53;;
5752;SDS011;2901;42.140;24.760;2023-01-13T05:49:27;2.67;;;2.57;;
5752;SDS011;2901;42.140;24.760;2023-01-13T05:51:52;2.13;;;2.03;;
5752;SDS011;2901;42.140;24.760;2023-01-13T05:54:18;1.97;;;1.87;;
5752;SDS011;2901;42.140;24.760;2023-01-13T05:56:43;2.70;;;2.60;;
5752;SDS011;2901;42.140;24.760;2023-01-13T05:59:08;2.57;;;2.43;;
5752;SDS011;2901;42.140;24.760;2023-01-13T06:01:34;2.77;;;2.57;;
5752;SDS011;2901;42.140;24.760;2023-01-13T06:04:01;3.20;;;3.00;;
5752;SDS011;2901;42.140;24.760;2023-01-13T06:06:26;3.17;;;2.83;;
5752;SDS011;2901;42.140;24.760;2023-01-13T06:08:51;2.90;;;2.80;;
5752;SDS011;2901;42.140;24.760;2023-01-13T06:11:17;2.67;;;2.53;;
5752;SDS011;2901;42.140;24.760;2023-01-13T06:13:42;3.10;;;2.80;;
5752;SDS011;2901;42.140;24.760;2023-01-13T06:16:07;3.83;;;3.53;;
5752;SDS011;2901;42.140;24.760;2023-01-13T06:18:33;7.07;;;3.50;;
5752;SDS011;2901;42.140;24.760;2023-01-13T06:20:58;3.47;;;3.00;;
5752;SDS011;2901;42.140;24.760;2023-01-13T06:23:24;4.43;;;4.13;;
5752;SDS011;2901;42.140;24.760;2023-01-13T06:28:39;3.70;;;3.47;;
5752;SDS011;2901;42.140;24.760;2023-01-13T06:31:05;3.88;;;3.58;;
5752;SDS011;2901;42.140;24.760;2023-01-13T06:33:32;3.90;;;3.60;;
5752;SDS011;2901;42.140;24.760;2023-01-13T06:36:12;3.50;;;3.20;;
5752;SDS011;2901;42.140;24.760;2023-01-13T06:38:43;3.60;;;3.40;;
5752;SDS011;2901;42.140;24.760;2023-01-13T06:41:11;3.50;;;3.20;;
5752;SDS011;2901;42.140;24.760;2023-01-13T06:43:37;3.00;;;2.63;;
5752;SDS011;2901;42.140;24.760;2023-01-13T06:46:03;3.10;;;3.00;;
5752;SDS011;2901;42.140;24.760;2023-01-13T06:48:29;3.67;;;3.40;;
5752;SDS011;2901;42.140;24.760;2023-01-13T06:51:03;6.00;;;4.00;;
5752;SDS011;2901;42.140;24.760;2023-01-13T06:53:28;4.13;;;3.85;;
5752;SDS011;2901;42.140;24.760;2023-01-13T06:55:54;3.90;;;3.53;;
5752;SDS011;2901;42.140;24.760;2023-01-13T06:58:20;5.60;;;3.22;;
5752;SDS011;2901;42.140;24.760;2023-01-13T07:00:45;9.77;;;3.70;;
5752;SDS011;2901;42.140;24.760;2023-01-13T07:03:15;3.83;;;3.63;;
5752;SDS011;2901;42.140;24.760;2023-01-13T07:05:42;3.50;;;3.20;;
5752;SDS011;2901;42.140;24.760;2023-01-13T07:08:14;3.40;;;3.20;;
5752;SDS011;2901;42.140;24.760;2023-01-13T07:10:40;6.72;;;3.80;;
5752;SDS011;2901;42.140;24.760;2023-01-13T07:13:05;6.03;;;4.23;;
5752;SDS011;2901;42.140;24.760;2023-01-13T07:15:56;6.53;;;4.50;;
5752;SDS011;2901;42.140;24.760;2023-01-13T07:18:26;4.18;;;3.80;;
5752;SDS011;2901;42.140;24.760;2023-01-13T07:20:55;6.00;;;5.17;;
5752;SDS011;2901;42.140;24.760;2023-01-13T07:23:23;5.15;;;4.05;;
5752;SDS011;2901;42.140;24.760;2023-01-13T07:25:50;5.47;;;4.37;;
5752;SDS011;2901;42.140;24.760;2023-01-13T07:28:19;5.47;;;4.33;;
5752;SDS011;2901;42.140;24.760;2023-01-13T07:30:44;5.00;;;3.87;;
5752;SDS011;2901;42.140;24.760;2023-01-13T07:33:09;5.10;;;4.20;;
5752;SDS011;2901;42.140;24.760;2023-01-13T07:35:35;4.70;;;4.32;;
5752;SDS011;2901;42.140;24.760;2023-01-13T07:38:00;4.40;;;3.93;;
5752;SDS011;2901;42.140;24.760;2023-01-13T07:40:26;5.10;;;4.63;;
5752;SDS011;2901;42.140;24.760;2023-01-13T07:42:51;6.07;;;4.80;;
5752;SDS011;2901;42.140;24.760;2023-01-13T07:45:35;4.35;;;4.05;;
5752;SDS011;2901;42.140;24.760;2023-01-13T07:48:00;5.77;;;5.27;;
5752;SDS011;2901;42.140;24.760;2023-01-13T07:50:26;5.87;;;5.10;;
5752;SDS011;2901;42.140;24.760;2023-01-13T07:52:51;7.28;;;5.65;;
5752;SDS011;2901;42.140;24.760;2023-01-13T07:55:17;5.70;;;5.20;;
5752;SDS011;2901;42.140;24.760;2023-01-13T07:57:42;7.40;;;6.70;;
5752;SDS011;2901;42.140;24.760;2023-01-13T08:00:08;6.57;;;5.90;;
5752;SDS011;2901;42.140;24.760;2023-01-13T08:02:34;6.80;;;6.20;;
5752;SDS011;2901;42.140;24.760;2023-01-13T08:04:59;8.98;;;7.47;;
5752;SDS011;2901;42.140;24.760;2023-01-13T08:07:24;7.13;;;6.63;;
5752;SDS011;2901;42.140;24.760;2023-01-13T08:09:50;14.93;;;6.70;;
5752;SDS011;2901;42.140;24.760;2023-01-13T08:12:15;7.50;;;6.65;;
5752;SDS011;2901;42.140;24.760;2023-01-13T08:14:59;7.32;;;6.63;;
5752;SDS011;2901;42.140;24.760;2023-01-13T08:17:25;7.40;;;6.63;;
5752;SDS011;2901;42.140;24.760;2023-01-13T08:19:50;8.82;;;6.35;;
5752;SDS011;2901;42.140;24.760;2023-01-13T08:22:15;5.20;;;4.80;;
5752;SDS011;2901;42.140;24.760;2023-01-13T08:24:41;5.50;;;4.95;;
5752;SDS011;2901;42.140;24.760;2023-01-13T08:27:06;6.32;;;4.32;;
5752;SDS011;2901;42.140;24.760;2023-01-13T08:29:31;4.57;;;4.28;;
5752;SDS011;2901;42.140;24.760;2023-01-13T08:31:57;5.03;;;4.63;;
5752;SDS011;2901;42.140;24.760;2023-01-13T08:34:22;5.35;;;4.95;;
5752;SDS011;2901;42.140;24.760;2023-01-13T08:36:48;7.80;;;5.50;;
5752;SDS011;2901;42.140;24.760;2023-01-13T08:39:14;5.80;;;5.40;;
5752;SDS011;2901;42.140;24.760;2023-01-13T08:41:39;6.47;;;5.80;;
5752;SDS011;2901;42.140;24.760;2023-01-13T08:44:20;12.32;;;5.82;;
5752;SDS011;2901;42.140;24.760;2023-01-13T08:46:50;8.98;;;7.00;;
5752;SDS011;2901;42.140;24.760;2023-01-13T08:49:16;12.48;;;8.35;;
5752;SDS011;2901;42.140;24.760;2023-01-13T08:51:42;11.70;;;7.90;;
5752;SDS011;2901;42.140;24.760;2023-01-13T08:54:08;13.43;;;9.75;;
5752;SDS011;2901;42.140;24.760;2023-01-13T08:56:33;12.15;;;10.63;;
5752;SDS011;2901;42.140;24.760;2023-01-13T08:58:59;12.82;;;10.30;;
5752;SDS011;2901;42.140;24.760;2023-01-13T09:01:25;16.35;;;9.98;;
5752;SDS011;2901;42.140;24.760;2023-01-13T09:03:51;12.50;;;10.23;;
5752;SDS011;2901;42.140;24.760;2023-01-13T09:06:17;12.73;;;11.40;;
5752;SDS011;2901;42.140;24.760;2023-01-13T09:08:42;20.63;;;11.10;;
5752;SDS011;2901;42.140;24.760;2023-01-13T09:11:09;17.23;;;11.23;;
5752;SDS011;2901;42.140;24.760;2023-01-13T09:14:02;11.00;;;10.00;;
5752;SDS011;2901;42.140;24.760;2023-01-13T09:16:28;12.82;;;9.32;;
5752;SDS011;2901;42.140;24.760;2023-01-13T09:18:53;10.60;;;9.60;;
5752;SDS011;2901;42.140;24.760;2023-01-13T09:21:19;11.77;;;9.02;;
5752;SDS011;2901;42.140;24.760;2023-01-13T09:23:45;9.27;;;8.40;;
5752;SDS011;2901;42.140;24.760;2023-01-13T09:26:11;9.55;;;8.70;;
5752;SDS011;2901;42.140;24.760;2023-01-13T09:28:40;12.82;;;9.35;;
5752;SDS011;2901;42.140;24.760;2023-01-13T09:31:05;12.63;;;11.05;;
5752;SDS011;2901;42.140;24.760;2023-01-13T09:33:31;11.48;;;9.45;;
5752;SDS011;2901;42.140;24.760;2023-01-13T09:36:15;11.95;;;10.95;;
5752;SDS011;2901;42.140;24.760;2023-01-13T09:38:40;11.27;;;8.98;;
5752;SDS011;2901;42.140;24.760;2023-01-13T09:41:05;9.80;;;8.93;;
5752;SDS011;2901;42.140;24.760;2023-01-13T09:43:52;11.07;;;9.45;;
5752;SDS011;2901;42.140;24.760;2023-01-13T09:46:28;10.68;;;9.73;;
5752;SDS011;2901;42.140;24.760;2023-01-13T09:49:33;9.80;;;8.82;;
5752;SDS011;2901;42.140;24.760;2023-01-13T09:52:03;10.30;;;9.50;;
5752;SDS011;2901;42.140;24.760;2023-01-13T09:54:37;11.45;;;10.15;;
5752;SDS011;2901;42.140;24.760;2023-01-13T09:57:09;11.63;;;9.38;;
5752;SDS011;2901;42.140;24.760;2023-01-13T09:59:36;10.45;;;9.45;;
5752;SDS011;2901;42.140;24.760;2023-01-13T10:05:15;19.27;;;12.75;;
5752;SDS011;2901;42.140;24.760;2023-01-13T10:07:58;12.30;;;10.85;;
5752;SDS011;2901;42.140;24.760;2023-01-13T10:10:49;16.58;;;12.43;;
5752;SDS011;2901;42.140;24.760;2023-01-13T10:28:54;18.13;;;11.95;;
5752;SDS011;2901;42.140;24.760;2023-01-13T10:31:20;12.55;;;11.25;;
5752;SDS011;2901;42.140;24.760;2023-01-13T10:33:48;11.68;;;10.55;;
5752;SDS011;2901;42.140;24.760;2023-01-13T10:36:22;15.32;;;11.65;;
5752;SDS011;2901;42.140;24.760;2023-01-13T10:38:48;13.48;;;11.18;;
5752;SDS011;2901;42.140;24.760;2023-01-13T10:46:58;12.43;;;11.23;;
5752;SDS011;2901;42.140;24.760;2023-01-13T10:49:25;14.85;;;12.50;;
5752;SDS011;2901;42.140;24.760;2023-01-13T10:51:57;20.05;;;15.23;;
5752;SDS011;2901;42.140;24.760;2023-01-13T10:54:23;17.10;;;15.20;;
5752;SDS011;2901;42.140;24.760;2023-01-13T10:57:11;16.30;;;14.60;;
5752;SDS011;2901;42.140;24.760;2023-01-13T10:59:55;19.48;;;12.77;;
5752;SDS011;2901;42.140;24.760;2023-01-13T11:02:26;15.13;;;12.75;;
5752;SDS011;2901;42.140;24.760;2023-01-13T11:07:31;17.60;;;14.07;;
5752;SDS011;2901;42.140;24.760;2023-01-13T11:10:12;18.02;;;14.70;;
5752;SDS011;2901;42.140;24.760;2023-01-13T11:12:45;21.70;;;15.13;;
5752;SDS011;2901;42.140;24.760;2023-01-13T11:15:23;16.00;;;12.65;;
5752;SDS011;2901;42.140;24.760;2023-01-13T11:18:02;15.05;;;13.18;;
5752;SDS011;2901;42.140;24.760;2023-01-13T11:20:38;18.13;;;14.45;;
5752;SDS011;2901;42.140;24.760;2023-01-13T11:23:10;13.27;;;11.95;;
5752;SDS011;2901;42.140;24.760;2023-01-13T11:25:53;20.52;;;12.15;;
5752;SDS011;2901;42.140;24.760;2023-01-13T11:31:15;18.88;;;12.45;;
5752;SDS011;2901;42.140;24.760;2023-01-13T11:33:49;13.43;;;10.43;;
5752;SDS011;2901;42.140;24.760;2023-01-13T11:36:32;16.27;;;11.00;;
5752;SDS011;2901;42.140;24.760;2023-01-13T11:41:52;27.10;;;12.90;;
5752;SDS011;2901;42.140;24.760;2023-01-13T11:44:40;18.35;;;12.32;;
5752;SDS011;2901;42.140;24.760;2023-01-13T11:47:10;12.85;;;11.35;;
5752;SDS011;2901;42.140;24.760;2023-01-13T11:49:37;12.38;;;11.15;;
5752;SDS011;2901;42.140;24.760;2023-01-13T12:16:33;15.30;;;9.55;;
5752;SDS011;2901;42.140;24.760;2023-01-13T12:27:42;13.35;;;11.90;;
5752;SDS011;2901;42.140;24.760;2023-01-13T12:36:31;12.00;;;10.82;;
5752;SDS011;2901;42.140;24.760;2023-01-13T12:44:35;10.40;;;9.48;;
5752;SDS011;2901;42.140;24.760;2023-01-13T12:47:00;11.45;;;10.32;;
5752;SDS011;2901;42.140;24.760;2023-01-13T12:49:32;25.13;;;11.82;;
5752;SDS011;2901;42.140;24.760;2023-01-13T12:57:12;10.63;;;9.73;;
5752;SDS011;2901;42.140;24.760;2023-01-13T13:02:25;9.80;;;8.85;;
5752;SDS011;2901;42.140;24.760;2023-01-13T13:04:53;16.80;;;9.32;;
5752;SDS011;2901;42.140;24.760;2023-01-13T13:07:23;9.95;;;8.30;;
5752;SDS011;2901;42.140;24.760;2023-01-13T13:12:58;11.18;;;10.05;;
5752;SDS011;2901;42.140;24.760;2023-01-13T13:15:47;32.70;;;13.50;;
5752;SDS011;2901;42.140;24.760;2023-01-13T13:23:37;21.60;;;11.05;;
5752;SDS011;2901;42.140;24.760;2023-01-13T13:26:22;12.82;;;11.52;;
5752;SDS011;2901;42.140;24.760;2023-01-13T13:29:16;12.00;;;10.38;;
5752;SDS011;2901;42.140;24.760;2023-01-13T13:35:07;12.73;;;10.80;;
5752;SDS011;2901;42.140;24.760;2023-01-13T13:38:06;15.07;;;11.23;;
5752;SDS011;2901;42.140;24.760;2023-01-13T13:40:54;25.60;;;13.35;;
5752;SDS011;2901;42.140;24.760;2023-01-13T13:43:38;36.22;;;12.63;;
5752;SDS011;2901;42.140;24.760;2023-01-13T13:46:25;46.35;;;15.50;;
5752;SDS011;2901;42.140;24.760;2023-01-13T13:49:11;18.05;;;12.77;;
5752;SDS011;2901;42.140;24.760;2023-01-13T13:51:39;18.52;;;12.30;;
5752;SDS011;2901;42.140;24.760;2023-01-13T13:54:12;17.48;;;12.27;;
5752;SDS011;2901;42.140;24.760;2023-01-13T13:56:43;19.95;;;12.18;;
5752;SDS011;2901;42.140;24.760;2023-01-13T13:59:10;15.27;;;11.18;;
5752;SDS011;2901;42.140;24.760;2023-01-13T14:01:39;16.25;;;12.15;;
5752;SDS011;2901;42.140;24.760;2023-01-13T14:04:22;12.45;;;10.50;;
5752;SDS011;2901;42.140;24.760;2023-01-13T14:07:01;14.55;;;12.77;;
5752;SDS011;2901;42.140;24.760;2023-01-13T14:09:40;23.70;;;12.88;;
5752;SDS011;2901;42.140;24.760;2023-01-13T14:12:19;19.40;;;10.90;;
5752;SDS011;2901;42.140;24.760;2023-01-13T14:14:49;18.38;;;12.40;;
5752;SDS011;2901;42.140;24.760;2023-01-13T14:22:29;25.80;;;12.80;;
5752;SDS011;2901;42.140;24.760;2023-01-13T14:24:55;16.08;;;12.57;;
5752;SDS011;2901;42.140;24.760;2023-01-13T14:27:22;29.48;;;15.10;;
5752;SDS011;2901;42.140;24.760;2023-01-13T14:29:51;30.15;;;16.70;;
5752;SDS011;2901;42.140;24.760;2023-01-13T14:32:19;23.15;;;15.32;;
5752;SDS011;2901;42.140;24.760;2023-01-13T14:34:46;38.17;;;17.42;;
5752;SDS011;2901;42.140;24.760;2023-01-13T14:37:35;43.53;;;19.88;;
5752;SDS011;2901;42.140;24.760;2023-01-13T14:40:03;37.38;;;17.17;;
5752;SDS011;2901;42.140;24.760;2023-01-13T14:42:28;32.25;;;14.68;;
5752;SDS011;2901;42.140;24.760;2023-01-13T14:44:55;26.92;;;16.20;;
5752;SDS011;2901;42.140;24.760;2023-01-13T14:47:25;30.65;;;15.57;;
5752;SDS011;2901;42.140;24.760;2023-01-13T14:52:26;25.50;;;14.15;;
5752;SDS011;2901;42.140;24.760;2023-01-13T14:57:33;21.60;;;13.52;;
5752;SDS011;2901;42.140;24.760;2023-01-13T15:07:56;13.18;;;11.88;;
5752;SDS011;2901;42.140;24.760;2023-01-13T15:10:24;23.70;;;12.68;;
5752;SDS011;2901;42.140;24.760;2023-01-13T15:12:53;13.95;;;11.85;;
5752;SDS011;2901;42.140;24.760;2023-01-13T15:15:24;19.88;;;11.70;;
5752;SDS011;2901;42.140;24.760;2023-01-13T15:17:57;20.88;;;12.48;;
5752;SDS011;2901;42.140;24.760;2023-01-13T15:20:23;27.30;;;14.60;;
5752;SDS011;2901;42.140;24.760;2023-01-13T15:22:50;34.97;;;17.02;;
5752;SDS011;2901;42.140;24.760;2023-01-13T15:25:16;24.77;;;16.35;;
5752;SDS011;2901;42.140;24.760;2023-01-13T15:27:43;30.83;;;15.32;;
5752;SDS011;2901;42.140;24.760;2023-01-13T15:30:13;28.17;;;15.02;;
5752;SDS011;2901;42.140;24.760;2023-01-13T15:32:38;24.35;;;15.43;;
5752;SDS011;2901;42.140;24.760;2023-01-13T15:35:04;38.63;;;16.67;;
5752;SDS011;2901;42.140;24.760;2023-01-13T15:37:30;21.50;;;14.55;;
5752;SDS011;2901;42.140;24.760;2023-01-13T15:39:55;66.15;;;21.95;;
5752;SDS011;2901;42.140;24.760;2023-01-13T15:42:20;41.08;;;21.55;;
5752;SDS011;2901;42.140;24.760;2023-01-13T15:45:04;30.25;;;15.88;;
5752;SDS011;2901;42.140;24.760;2023-01-13T15:47:49;26.75;;;15.52;;
5752;SDS011;2901;42.140;24.760;2023-01-13T15:50:15;26.55;;;15.20;;
5752;SDS011;2901;42.140;24.760;2023-01-13T15:52:42;42.13;;;15.60;;
5752;SDS011;2901;42.140;24.760;2023-01-13T15:55:08;39.30;;;15.73;;
5752;SDS011;2901;42.140;24.760;2023-01-13T15:57:34;31.75;;;15.43;;
5752;SDS011;2901;42.140;24.760;2023-01-13T16:00:07;35.47;;;17.17;;
5752;SDS011;2901;42.140;24.760;2023-01-13T16:02:38;31.73;;;15.32;;
5752;SDS011;2901;42.140;24.760;2023-01-13T16:05:04;27.95;;;14.90;;
5752;SDS011;2901;42.140;24.760;2023-01-13T16:07:30;26.65;;;16.77;;
5752;SDS011;2901;42.140;24.760;2023-01-13T16:09:56;39.05;;;16.38;;
5752;SDS011;2901;42.140;24.760;2023-01-13T16:12:21;49.83;;;16.55;;
5752;SDS011;2901;42.140;24.760;2023-01-13T16:14:47;24.13;;;15.18;;
5752;SDS011;2901;42.140;24.760;2023-01-13T16:17:19;33.95;;;17.15;;
5752;SDS011;2901;42.140;24.760;2023-01-13T16:19:46;47.22;;;19.50;;
5752;SDS011;2901;42.140;24.760;2023-01-13T16:22:13;35.72;;;19.42;;
5752;SDS011;2901;42.140;24.760;2023-01-13T16:24:39;39.88;;;19.67;;
5752;SDS011;2901;42.140;24.760;2023-01-13T16:27:23;46.92;;;22.17;;
5752;SDS011;2901;42.140;24.760;2023-01-13T16:29:50;28.95;;;17.83;;
5752;SDS011;2901;42.140;24.760;2023-01-13T16:32:16;39.58;;;27.08;;
5752;SDS011;2901;42.140;24.760;2023-01-13T16:34:44;48.10;;;21.80;;
5752;SDS011;2901;42.140;24.760;2023-01-13T16:37:20;30.52;;;21.48;;
5752;SDS011;2901;42.140;24.760;2023-01-13T16:39:47;46.85;;;19.20;;
5752;SDS011;2901;42.140;24.760;2023-01-13T16:42:13;41.88;;;18.02;;
5752;SDS011;2901;42.140;24.760;2023-01-13T16:44:38;34.17;;;18.23;;
5752;SDS011;2901;42.140;24.760;2023-01-13T16:47:04;44.65;;;17.52;;
5752;SDS011;2901;42.140;24.760;2023-01-13T16:49:30;32.15;;;18.73;;
5752;SDS011;2901;42.140;24.760;2023-01-13T16:51:56;31.23;;;16.67;;
5752;SDS011;2901;42.140;24.760;2023-01-13T16:54:21;28.42;;;17.30;;
5752;SDS011;2901;42.140;24.760;2023-01-13T16:56:46;25.77;;;16.58;;
5752;SDS011;2901;42.140;24.760;2023-01-13T16:59:12;37.33;;;18.35;;
5752;SDS011;2901;42.140;24.760;2023-01-13T17:01:39;34.15;;;20.73;;
5752;SDS011;2901;42.140;24.760;2023-01-13T17:04:07;37.90;;;19.45;;
5752;SDS011;2901;42.140;24.760;2023-01-13T17:06:40;29.38;;;17.13;;
5752;SDS011;2901;42.140;24.760;2023-01-13T17:09:17;41.55;;;19.58;;
5752;SDS011;2901;42.140;24.760;2023-01-13T17:11:45;33.42;;;18.75;;
5752;SDS011;2901;42.140;24.760;2023-01-13T17:14:10;40.40;;;20.83;;
5752;SDS011;2901;42.140;24.760;2023-01-13T17:16:36;44.95;;;22.77;;
5752;SDS011;2901;42.140;24.760;2023-01-13T17:19:02;43.83;;;21.67;;
5752;SDS011;2901;42.140;24.760;2023-01-13T17:21:27;50.80;;;23.83;;
5752;SDS011;2901;42.140;24.760;2023-01-13T17:23:52;52.78;;;22.55;;
5752;SDS011;2901;42.140;24.760;2023-01-13T17:26:23;35.13;;;20.23;;
5752;SDS011;2901;42.140;24.760;2023-01-13T17:28:55;35.55;;;19.42;;
5752;SDS011;2901;42.140;24.760;2023-01-13T17:31:21;46.58;;;21.50;;
5752;SDS011;2901;42.140;24.760;2023-01-13T17:33:46;38.83;;;20.85;;
5752;SDS011;2901;42.140;24.760;2023-01-13T17:36:12;43.78;;;23.73;;
5752;SDS011;2901;42.140;24.760;2023-01-13T17:38:37;41.83;;;22.50;;
5752;SDS011;2901;42.140;24.760;2023-01-13T17:41:03;39.13;;;24.20;;
5752;SDS011;2901;42.140;24.760;2023-01-13T17:43:32;61.42;;;28.80;;